createdAt,value
2022-09-06T00:01:29.846Z,9.10
2022-09-06T00:03:56.822Z,9.30
2022-09-06T00:06:23.785Z,9.00
2022-09-06T00:08:50.948Z,8.65
2022-09-06T00:11:18.705Z,8.82
2022-09-06T00:13:46.354Z,8.95
2022-09-06T00:16:16.458Z,8.88
2022-09-06T00:18:43.855Z,8.82
2022-09-06T00:21:24.763Z,8.45
2022-09-06T00:23:52.587Z,8.50
2022-09-06T00:26:20.474Z,8.23
2022-09-06T00:28:47.712Z,8.57
2022-09-06T00:31:20.738Z,7.85
2022-09-06T00:33:47.826Z,8.05
2022-09-06T00:36:15.556Z,8.45
2022-09-06T00:38:43.004Z,8.00
2022-09-06T00:41:12.187Z,7.90
2022-09-06T00:43:39.233Z,8.52
2022-09-06T00:46:08.497Z,8.20
2022-09-06T00:48:37.454Z,8.98
2022-09-06T00:51:07.086Z,8.35
2022-09-06T00:53:34.417Z,8.15
2022-09-06T00:56:01.956Z,8.82
2022-09-06T00:58:29.236Z,8.32
2022-09-06T01:00:56.729Z,8.57
2022-09-06T01:03:25.611Z,8.38
2022-09-06T01:06:17.126Z,9.13
2022-09-06T01:09:08.744Z,8.85
2022-09-06T01:12:12.708Z,7.63
2022-09-06T01:15:05.312Z,8.13
2022-09-06T01:18:09.089Z,9.38
2022-09-06T01:20:45.179Z,8.45
2022-09-06T01:23:12.164Z,8.50
2022-09-06T01:26:02.800Z,9.60
2022-09-06T01:28:46.819Z,8.80
2022-09-06T01:31:25.996Z,8.68
2022-09-06T01:34:08.281Z,8.80
2022-09-06T01:37:08.581Z,8.55
2022-09-06T01:39:36.520Z,9.07
2022-09-06T01:42:15.255Z,7.97
2022-09-06T01:44:53.730Z,8.48
2022-09-06T01:47:25.992Z,8.88
2022-09-06T01:50:01.424Z,8.88
2022-09-06T01:52:39.770Z,8.88
2022-09-06T01:55:31.487Z,8.73
2022-09-06T01:58:08.761Z,8.85
2022-09-06T02:00:55.367Z,8.80
2022-09-06T02:03:25.061Z,8.25
2022-09-06T02:05:56.899Z,8.02
2022-09-06T02:08:47.792Z,8.85
2022-09-06T02:11:16.480Z,8.88
2022-09-06T02:13:54.960Z,8.30
2022-09-06T02:16:26.772Z,9.05
2022-09-06T02:19:16.434Z,9.25
2022-09-06T02:21:45.805Z,9.25
2022-09-06T02:24:18.827Z,9.25
2022-09-06T02:26:46.660Z,9.60
2022-09-06T02:29:14.527Z,9.02
2022-09-06T02:32:00.928Z,9.13
2022-09-06T02:34:28.051Z,10.20
2022-09-06T02:36:56.458Z,9.52
2022-09-06T02:39:24.921Z,9.88
2022-09-06T02:41:52.405Z,8.57
2022-09-06T02:44:19.332Z,10.38
2022-09-06T02:46:46.374Z,8.45
2022-09-06T02:49:13.338Z,9.50
2022-09-06T02:51:40.712Z,9.15
2022-09-06T02:54:08.087Z,10.43
2022-09-06T02:56:36.639Z,9.60
2022-09-06T02:59:05.551Z,9.77
2022-09-06T03:01:32.984Z,10.15
2022-09-06T03:03:59.988Z,9.90
2022-09-06T03:06:27.067Z,10.02
2022-09-06T03:08:54.036Z,9.77
2022-09-06T03:11:21.046Z,10.30
2022-09-06T03:13:51.063Z,9.70
2022-09-06T03:16:18.716Z,9.77
2022-09-06T03:18:46.944Z,10.15
2022-09-06T03:21:14.622Z,9.82
2022-09-06T03:23:41.636Z,10.70
2022-09-06T03:26:08.607Z,10.88
2022-09-06T03:28:35.655Z,10.75
2022-09-06T03:31:02.708Z,10.40
2022-09-06T03:33:29.823Z,10.50
2022-09-06T03:36:01.702Z,10.55
2022-09-06T03:38:29.455Z,10.18
2022-09-06T03:40:56.873Z,10.73
2022-09-06T03:43:25.919Z,10.90
2022-09-06T03:45:55.405Z,10.13
2022-09-06T03:48:23.908Z,11.68
2022-09-06T03:50:54.195Z,10.95
2022-09-06T03:53:22.013Z,11.02
2022-09-06T03:55:51.476Z,10.25
2022-09-06T03:58:20.727Z,11.20
2022-09-06T04:00:47.889Z,11.07
2022-09-06T04:03:14.923Z,10.82
2022-09-06T04:05:46.415Z,10.85
2022-09-06T04:08:13.738Z,11.48
2022-09-06T04:10:41.088Z,11.10
2022-09-06T04:13:08.057Z,11.00
2022-09-06T04:15:35.012Z,11.23
2022-09-06T04:18:03.985Z,11.23
2022-09-06T04:20:35.055Z,12.70
2022-09-06T04:23:01.971Z,11.27
2022-09-06T04:25:28.895Z,11.40
2022-09-06T04:27:55.889Z,11.70
2022-09-06T04:30:22.850Z,12.10
2022-09-06T04:32:49.816Z,12.07
2022-09-06T04:35:16.872Z,12.27
2022-09-06T04:37:43.898Z,11.45
2022-09-06T04:40:11.239Z,11.52
2022-09-06T04:42:38.308Z,12.25
2022-09-06T04:45:05.784Z,13.35
2022-09-06T04:47:32.801Z,12.00
2022-09-06T04:49:59.772Z,12.27
2022-09-06T04:52:30.043Z,12.90
2022-09-06T04:54:57.345Z,12.27
2022-09-06T04:57:24.277Z,13.40
2022-09-06T04:59:51.195Z,13.40
2022-09-06T05:02:18.207Z,12.25
2022-09-06T05:04:45.189Z,12.93
2022-09-06T05:07:12.348Z,13.55
2022-09-06T05:09:39.297Z,12.65
2022-09-06T05:12:06.560Z,11.77
2022-09-06T05:14:33.539Z,12.75
2022-09-06T05:17:00.529Z,13.00
2022-09-06T05:19:27.496Z,11.98
2022-09-06T05:21:54.456Z,12.90
2022-09-06T05:24:21.394Z,11.68
2022-09-06T05:26:48.359Z,13.02
2022-09-06T05:29:15.321Z,13.15
2022-09-06T05:31:42.304Z,11.90
2022-09-06T05:34:10.514Z,12.52
2022-09-06T05:36:38.781Z,12.48
2022-09-06T05:39:05.839Z,11.98
2022-09-06T05:41:33.804Z,11.63
2022-09-06T05:44:00.931Z,11.52
2022-09-06T05:46:27.855Z,12.07
2022-09-06T05:49:01.347Z,11.57
2022-09-06T05:53:55.158Z,11.70
2022-09-06T05:56:22.640Z,11.90
2022-09-06T05:58:49.843Z,11.30
2022-09-06T06:01:19.800Z,11.48
2022-09-06T06:03:51.836Z,11.82
2022-09-06T06:06:19.456Z,11.30
2022-09-06T06:08:46.725Z,10.38
2022-09-06T06:11:14.348Z,11.38
2022-09-06T06:13:43.177Z,10.40
2022-09-06T06:16:15.630Z,10.23
2022-09-06T06:18:47.676Z,10.43
2022-09-06T06:21:30.333Z,10.32
2022-09-06T06:24:02.453Z,10.32
2022-09-06T06:26:32.066Z,9.48
2022-09-06T06:29:01.966Z,9.48
2022-09-06T06:31:33.490Z,9.32
2022-09-06T06:34:03.247Z,9.02
2022-09-06T06:36:34.214Z,9.00
2022-09-06T06:39:02.474Z,8.10
2022-09-06T06:41:32.502Z,8.90
2022-09-06T06:44:01.707Z,8.88
2022-09-06T06:46:31.605Z,7.82
2022-09-06T06:48:59.011Z,8.45
2022-09-06T06:51:29.278Z,7.70
2022-09-06T06:54:02.451Z,7.80
2022-09-06T06:59:06.938Z,8.18
2022-09-06T07:01:35.912Z,8.00
2022-09-06T07:04:04.116Z,8.10
2022-09-06T07:09:20.672Z,7.68
2022-09-06T07:11:51.370Z,14.48
2022-09-06T07:14:19.068Z,8.00
2022-09-06T07:16:46.510Z,7.63
2022-09-06T07:22:04.431Z,7.18
2022-09-06T07:24:32.804Z,7.63
2022-09-06T07:29:47.023Z,7.80
2022-09-06T07:32:13.979Z,6.68
2022-09-06T07:34:41.707Z,7.53
2022-09-06T07:37:08.653Z,7.38
2022-09-06T07:39:37.130Z,6.80
2022-09-06T07:42:04.699Z,6.68
2022-09-06T07:44:31.672Z,7.53
2022-09-06T07:55:19.931Z,5.90
2022-09-06T07:57:46.955Z,5.63
2022-09-06T08:00:14.157Z,5.35
2022-09-06T08:02:41.161Z,5.32
2022-09-06T08:10:42.518Z,4.82
2022-09-06T08:13:09.538Z,4.82
2022-09-06T08:15:36.552Z,6.05
2022-09-06T08:18:03.608Z,5.15
2022-09-06T08:20:30.823Z,4.93
2022-09-06T08:22:57.785Z,5.13
2022-09-06T08:25:25.676Z,5.50
2022-09-06T08:27:52.665Z,5.70
2022-09-06T08:30:19.754Z,5.80
2022-09-06T08:32:46.754Z,5.75
2022-09-06T08:35:13.769Z,5.45
2022-09-06T08:37:40.708Z,6.78
2022-09-06T08:40:08.403Z,6.07
2022-09-06T08:42:39.994Z,6.20
2022-09-06T08:45:12.537Z,6.15
2022-09-06T08:47:39.536Z,5.45
2022-09-06T08:50:08.023Z,6.45
2022-09-06T08:52:45.403Z,6.32
2022-09-06T08:55:24.598Z,6.53
2022-09-06T08:58:29.319Z,6.60
2022-09-06T09:01:07.538Z,6.47
2022-09-06T09:03:37.421Z,6.80
2022-09-06T09:06:07.209Z,6.57
2022-09-06T09:08:52.831Z,6.05
2022-09-06T09:11:25.451Z,5.68
2022-09-06T09:13:55.467Z,6.50
2022-09-06T09:16:23.434Z,7.28
2022-09-06T09:18:53.845Z,11.82
2022-09-06T09:21:29.588Z,6.55
2022-09-06T09:24:10.267Z,6.82
2022-09-06T09:27:16.144Z,6.72
2022-09-06T09:32:45.227Z,6.80
2022-09-06T09:35:20.299Z,6.13
2022-09-06T09:37:49.287Z,7.45
2022-09-06T09:40:25.452Z,7.53
2022-09-06T09:42:56.799Z,7.07
2022-09-06T09:45:23.828Z,7.68
2022-09-06T09:47:51.055Z,7.78
2022-09-06T09:50:35.144Z,6.90
2022-09-06T09:53:11.247Z,7.60
2022-09-06T09:55:39.155Z,9.40
2022-09-06T09:58:09.019Z,7.78
2022-09-06T10:00:41.553Z,8.48
2022-09-06T10:03:20.115Z,8.88
2022-09-06T10:06:02.531Z,8.60
2022-09-06T10:08:33.750Z,9.60
2022-09-06T10:11:01.013Z,11.10
2022-09-06T10:13:30.896Z,10.00
2022-09-06T10:15:59.631Z,9.15
2022-09-06T10:18:42.872Z,7.85
2022-09-06T10:21:11.214Z,7.93
2022-09-06T10:26:59.155Z,9.85
2022-09-06T10:29:39.387Z,10.02
2022-09-06T10:32:09.311Z,9.38
2022-09-06T10:35:00.736Z,9.25
2022-09-06T10:37:52.244Z,9.95
2022-09-06T10:40:53.410Z,8.85
2022-09-06T10:43:20.953Z,8.55
2022-09-06T10:46:09.384Z,11.57
2022-09-06T10:48:41.183Z,8.57
2022-09-06T10:51:50.145Z,9.82
2022-09-06T10:54:23.779Z,8.90
2022-09-06T10:57:03.061Z,6.70
2022-09-06T10:59:52.150Z,6.30
2022-09-06T11:02:48.618Z,5.60
2022-09-06T11:10:58.444Z,5.25
2022-09-06T11:13:27.804Z,4.82
2022-09-06T11:15:57.552Z,6.82
2022-09-06T11:18:33.697Z,7.30
2022-09-06T11:21:22.441Z,8.63
2022-09-06T11:23:54.086Z,7.10
2022-09-06T11:26:42.869Z,5.90
2022-09-06T11:29:27.294Z,8.95
2022-09-06T11:32:16.689Z,8.15
2022-09-06T11:34:54.434Z,9.00
2022-09-06T11:37:32.697Z,9.18
2022-09-06T11:40:30.250Z,9.60
2022-09-06T11:42:59.359Z,9.60
2022-09-06T11:45:41.722Z,8.95
2022-09-06T11:48:24.067Z,8.93
2022-09-06T11:50:54.296Z,7.35
2022-09-06T11:53:24.593Z,8.45
2022-09-06T11:56:22.518Z,7.10
2022-09-06T11:58:56.356Z,6.70
2022-09-06T12:01:23.308Z,7.97
2022-09-06T12:04:09.689Z,7.35
2022-09-06T12:07:04.009Z,7.40
2022-09-06T12:09:34.375Z,8.00
2022-09-06T12:12:02.616Z,6.72
2022-09-06T12:14:48.204Z,6.50
2022-09-06T12:17:15.144Z,6.65
2022-09-06T12:19:55.559Z,7.15
2022-09-06T12:22:31.210Z,6.38
2022-09-06T12:25:07.868Z,7.15
2022-09-06T12:27:40.119Z,6.43
2022-09-06T12:30:13.897Z,6.77
2022-09-06T12:32:52.135Z,6.18
2022-09-06T12:38:24.231Z,7.22
2022-09-06T12:40:56.456Z,7.25
2022-09-06T12:43:23.433Z,7.37
2022-09-06T12:45:52.372Z,6.10
2022-09-06T12:48:28.595Z,6.05
2022-09-06T12:51:06.893Z,6.75
2022-09-06T12:53:34.987Z,5.82
2022-09-06T12:56:12.171Z,6.80
2022-09-06T12:58:39.660Z,5.80
2022-09-06T13:01:33.253Z,6.47
2022-09-06T13:04:08.531Z,6.80
2022-09-06T13:06:40.831Z,7.00
2022-09-06T13:09:12.784Z,6.53
2022-09-06T13:11:44.108Z,5.80
2022-09-06T13:14:14.689Z,6.13
2022-09-06T13:16:51.340Z,5.65
2022-09-06T13:19:39.275Z,6.05
2022-09-06T13:22:10.940Z,5.68
2022-09-06T13:24:47.112Z,6.60
2022-09-06T13:27:39.101Z,6.60
2022-09-06T13:30:09.203Z,6.75
2022-09-06T13:32:45.396Z,5.78
2022-09-06T13:35:30.155Z,5.53
2022-09-06T13:38:38.106Z,5.55
2022-09-06T13:41:15.824Z,6.18
2022-09-06T13:43:45.525Z,5.70
2022-09-06T13:46:12.620Z,5.53
2022-09-06T13:48:40.001Z,5.28
2022-09-06T13:51:08.776Z,6.18
2022-09-06T13:53:36.326Z,5.70
2022-09-06T13:56:03.940Z,5.63
2022-09-06T13:58:30.863Z,5.82
2022-09-06T14:00:59.039Z,5.82
2022-09-06T14:03:31.584Z,6.05
2022-09-06T14:06:00.369Z,5.75
2022-09-06T14:08:43.396Z,5.43
2022-09-06T14:11:15.760Z,6.13
2022-09-06T14:13:42.790Z,6.10
2022-09-06T14:16:09.926Z,6.05
2022-09-06T14:18:36.973Z,5.43
2022-09-06T14:21:05.462Z,6.47
2022-09-06T14:23:32.390Z,6.85
2022-09-06T14:26:01.738Z,6.45
2022-09-06T14:28:31.107Z,5.80
2022-09-06T14:30:58.307Z,5.60
2022-09-06T14:33:25.392Z,5.75
2022-09-06T14:35:52.427Z,6.07
2022-09-06T14:38:19.694Z,5.80
2022-09-06T14:40:47.374Z,5.70
2022-09-06T14:43:14.973Z,5.82
2022-09-06T14:45:41.914Z,6.13
2022-09-06T14:48:09.455Z,5.28
2022-09-06T14:50:37.334Z,5.55
2022-09-06T14:53:08.873Z,5.45
2022-09-06T14:55:45.821Z,5.60
2022-09-06T14:58:14.946Z,5.30
2022-09-06T15:00:44.799Z,5.95
2022-09-06T15:03:11.744Z,5.13
2022-09-06T15:05:38.710Z,4.95
2022-09-06T15:08:06.223Z,5.03
2022-09-06T15:10:33.184Z,5.60
2022-09-06T15:13:00.220Z,5.20
2022-09-06T15:15:27.257Z,5.22
2022-09-06T15:17:54.252Z,5.35
2022-09-06T15:20:21.271Z,5.07
2022-09-06T15:22:56.310Z,5.35
2022-09-06T15:25:36.192Z,5.47
2022-09-06T15:28:03.398Z,5.50
2022-09-06T15:30:30.493Z,4.65
2022-09-06T15:32:57.469Z,5.00
2022-09-06T15:35:24.476Z,4.90
2022-09-06T15:37:51.477Z,4.40
2022-09-06T15:40:19.248Z,5.30
2022-09-06T15:42:46.416Z,4.75
2022-09-06T15:45:13.435Z,5.00
2022-09-06T15:47:40.567Z,5.10
2022-09-06T15:50:07.890Z,4.93
2022-09-06T15:52:34.892Z,11.20
2022-09-06T15:55:20.355Z,4.70
2022-09-06T15:57:47.547Z,4.80
2022-09-06T16:00:17.180Z,5.47
2022-09-06T16:02:44.833Z,4.93
2022-09-06T16:05:11.887Z,4.75
2022-09-06T16:07:43.042Z,5.35
2022-09-06T16:10:13.528Z,4.28
2022-09-06T16:12:40.517Z,4.53
2022-09-06T16:15:08.192Z,5.70
2022-09-06T16:17:35.394Z,6.25
2022-09-06T16:20:03.525Z,4.75
2022-09-06T16:22:30.979Z,5.10
2022-09-06T16:24:58.074Z,5.97
2022-09-06T16:27:26.300Z,4.97
2022-09-06T16:29:53.344Z,4.72
2022-09-06T16:32:21.090Z,4.90
2022-09-06T16:34:48.344Z,5.50
2022-09-06T16:37:15.676Z,5.05
2022-09-06T16:39:43.222Z,5.00
2022-09-06T16:42:11.140Z,4.55
2022-09-06T16:44:38.642Z,5.07
2022-09-06T16:47:06.134Z,4.93
2022-09-06T16:49:33.305Z,5.38
2022-09-06T16:52:00.663Z,4.85
2022-09-06T16:54:27.866Z,5.07
2022-09-06T16:56:55.044Z,4.88
2022-09-06T16:59:22.395Z,5.20
2022-09-06T17:01:49.638Z,5.45
2022-09-06T17:04:16.837Z,5.40
2022-09-06T17:06:47.326Z,5.13
2022-09-06T17:09:16.735Z,5.22
2022-09-06T17:11:43.738Z,5.32
2022-09-06T17:14:10.836Z,4.95
2022-09-06T17:16:56.367Z,6.10
2022-09-06T17:19:23.484Z,6.25
2022-09-06T17:21:50.771Z,6.07
2022-09-06T17:24:17.814Z,6.82
2022-09-06T17:26:44.795Z,6.43
2022-09-06T17:29:11.836Z,6.18
2022-09-06T17:31:38.950Z,6.07
2022-09-06T17:34:07.758Z,6.60
2022-09-06T17:36:35.873Z,6.45
2022-09-06T17:39:08.347Z,5.85
2022-09-06T17:41:38.805Z,7.00
2022-09-06T17:44:11.173Z,6.60
2022-09-06T17:46:52.047Z,6.55
2022-09-06T17:49:25.798Z,6.78
2022-09-06T17:51:52.947Z,6.38
2022-09-06T17:54:19.906Z,7.18
2022-09-06T17:56:46.992Z,6.75
2022-09-06T17:59:15.687Z,6.55
2022-09-06T18:01:45.929Z,6.40
2022-09-06T18:04:14.236Z,6.35
2022-09-06T18:06:43.451Z,6.90
2022-09-06T18:09:14.857Z,6.63
2022-09-06T18:11:42.488Z,6.97
2022-09-06T18:14:12.098Z,6.40
2022-09-06T18:16:40.573Z,6.78
2022-09-06T18:19:08.894Z,7.18
2022-09-06T18:21:38.877Z,6.28
2022-09-06T18:24:06.538Z,6.82
2022-09-06T18:26:33.569Z,7.20
2022-09-06T18:29:01.600Z,7.15
2022-09-06T18:31:29.040Z,6.65
2022-09-06T18:33:58.990Z,6.72
2022-09-06T18:36:31.997Z,7.05
2022-09-06T18:39:04.275Z,8.00
2022-09-06T18:41:51.272Z,7.72
2022-09-06T18:44:18.808Z,7.57
2022-09-06T18:46:46.199Z,6.43
2022-09-06T18:49:15.132Z,7.80
2022-09-06T18:51:42.957Z,7.35
2022-09-06T18:54:11.174Z,8.60
2022-09-06T18:56:38.772Z,7.57
2022-09-06T18:59:07.114Z,7.28
2022-09-06T19:01:35.153Z,7.18
2022-09-06T19:04:03.746Z,7.18
2022-09-06T19:06:32.547Z,7.07
2022-09-06T19:09:04.432Z,6.97
2022-09-06T19:11:32.102Z,6.78
2022-09-06T19:13:59.398Z,7.70
2022-09-06T19:16:27.783Z,7.28
2022-09-06T19:18:56.848Z,7.00
2022-09-06T19:21:25.589Z,6.90
2022-09-06T19:24:07.224Z,7.38
2022-09-06T19:26:37.690Z,7.28
2022-09-06T19:29:08.960Z,7.25
2022-09-06T19:31:38.263Z,7.38
2022-09-06T19:34:05.674Z,7.13
2022-09-06T19:36:33.171Z,7.85
2022-09-06T19:39:06.574Z,7.03
2022-09-06T19:44:05.517Z,7.75
2022-09-06T19:46:32.750Z,7.20
2022-09-06T19:49:00.577Z,7.78
2022-09-06T19:51:27.866Z,7.03
2022-09-06T19:54:00.061Z,7.18
2022-09-06T19:56:31.610Z,7.43
2022-09-06T19:59:00.830Z,8.68
2022-09-06T20:01:31.127Z,6.63
2022-09-06T20:03:59.927Z,7.28
2022-09-06T20:06:27.444Z,7.35
2022-09-06T20:08:56.608Z,7.40
2022-09-06T20:11:26.489Z,8.52
2022-09-06T20:13:53.754Z,8.75
2022-09-06T20:16:21.193Z,8.55
2022-09-06T20:18:49.114Z,7.35
2022-09-06T20:21:18.432Z,7.20
2022-09-06T20:23:52.646Z,7.25
2022-09-06T20:26:20.762Z,6.53
2022-09-06T20:28:48.957Z,7.00
2022-09-06T20:31:18.635Z,7.93
2022-09-06T20:33:49.722Z,7.25
2022-09-06T20:36:18.246Z,7.35
2022-09-06T20:38:46.996Z,7.15
2022-09-06T20:41:20.098Z,7.40
2022-09-06T20:43:52.109Z,7.25
2022-09-06T20:46:20.618Z,7.13
2022-09-06T20:48:48.048Z,7.75
2022-09-06T20:51:23.587Z,6.93
2022-09-06T20:53:56.569Z,7.45
2022-09-06T20:56:35.428Z,7.63
2022-09-06T20:59:05.184Z,7.13
2022-09-06T21:01:35.142Z,7.38
2022-09-06T21:04:04.446Z,6.72
2022-09-06T21:06:35.867Z,7.72
2022-09-06T21:09:04.897Z,6.65
2022-09-06T21:11:31.862Z,6.97
2022-09-06T21:13:59.110Z,7.50
2022-09-06T21:16:28.386Z,7.47
2022-09-06T21:18:58.155Z,7.78
2022-09-06T21:21:26.502Z,7.70
2022-09-06T21:23:54.087Z,6.95
2022-09-06T21:26:22.403Z,7.95
2022-09-06T21:28:49.989Z,7.55
2022-09-06T21:31:25.760Z,7.72
2022-09-06T21:33:55.208Z,7.07
2022-09-06T21:36:24.987Z,7.75
2022-09-06T21:38:59.081Z,7.95
2022-09-06T21:41:27.547Z,7.35
2022-09-06T21:43:56.892Z,7.53
2022-09-06T21:46:30.305Z,6.95
2022-09-06T21:49:01.782Z,7.85
2022-09-06T21:51:28.730Z,7.88
2022-09-06T21:53:57.033Z,7.28
2022-09-06T21:56:25.003Z,7.20
2022-09-06T21:58:55.430Z,7.25
2022-09-06T22:01:27.908Z,7.43
2022-09-06T22:03:55.486Z,7.60
2022-09-06T22:06:28.951Z,8.13
2022-09-06T22:08:57.763Z,7.03
2022-09-06T22:11:28.380Z,6.60
2022-09-06T22:13:59.332Z,7.13
2022-09-06T22:16:27.988Z,6.70
2022-09-06T22:18:55.467Z,7.07
2022-09-06T22:21:23.062Z,7.68
2022-09-06T22:24:01.154Z,7.72
2022-09-06T22:26:30.267Z,6.93
2022-09-06T22:28:59.948Z,6.93
2022-09-06T22:31:28.735Z,7.53
2022-09-06T22:33:56.768Z,7.28
2022-09-06T22:36:25.546Z,7.30
2022-09-06T22:38:57.186Z,7.25
2022-09-06T22:41:30.126Z,8.27
2022-09-06T22:44:00.196Z,7.23
2022-09-06T22:46:27.505Z,7.03
2022-09-06T22:48:54.688Z,7.15
2022-09-06T22:51:21.748Z,8.18
2022-09-06T22:53:48.686Z,6.82
2022-09-06T22:56:15.657Z,7.47
2022-09-06T22:58:42.788Z,7.25
2022-09-06T23:01:12.258Z,7.03
2022-09-06T23:03:40.545Z,7.07
2022-09-06T23:06:08.554Z,6.35
2022-09-06T23:08:37.806Z,6.95
2022-09-06T23:11:07.372Z,7.32
2022-09-06T23:13:34.420Z,6.38
2022-09-06T23:16:06.852Z,6.88
2022-09-06T23:18:34.694Z,7.25
2022-09-06T23:21:08.304Z,8.15
2022-09-06T23:26:08.821Z,6.63
2022-09-06T23:28:37.171Z,7.30
2022-09-06T23:31:09.016Z,7.43
2022-09-06T23:33:37.317Z,7.20
2022-09-06T23:36:12.708Z,7.30
2022-09-06T23:38:41.428Z,7.00
2022-09-06T23:41:09.907Z,7.22
2022-09-06T23:43:37.653Z,7.65
2022-09-06T23:46:05.221Z,7.25
2022-09-06T23:48:32.514Z,7.25
2022-09-06T23:50:59.780Z,7.15
2022-09-06T23:53:26.872Z,7.00
2022-09-06T23:55:54.325Z,7.18
2022-09-06T23:58:21.490Z,6.90
